KVTN/VTN METAR and TAF weather

Enter ICAO airport designator
Station Type Date Time Source
KVTN METAR 2019/10/22 15:52 UTC NOAA

KVTN 221552Z AUTO 29012KT 10SM SCT070 BKN100 08/00 A2998 RMK AO2 SLP164 T00830000


Station Type Date Time Source
KVTN Decoded METAR 2019/10/22 15:52 UTC NOAA

MILLER FIELD - VALENTINE, NE, NE, United States (KVTN) 42-52N 100-33W 788M
Oct 22, 2019 - 11:52 AM EDT / 2019.10.22 1552 UTC
Wind: from the WNW (290 degrees) at 14 MPH (12 KT):0
Visibility: 10 mile(s):0
Sky conditions: mostly cloudy
Temperature: 46.9 F (8.3 C)
Dew Point: 32.0 F (0.0 C)
Relative Humidity: 55%
Pressure (altimeter): 29.98 in. Hg (1015 hPa)
ob: KVTN 221552Z AUTO 29012KT 10SM SCT070 BKN100 08/00 A2998 RMK AO2 SLP164 T00830000
cycle: 16

Station Type Date Time Source
KVTN TAF 2019/10/22 12:22 UTC NOAA

TAF KVTN 221120Z 2212/2312 30012KT P6SM SCT100
FM221500 30016G24KT P6SM SCT100
FM221800 30019G28KT P6SM SCT100
FM222300 29012KT P6SM BKN100
FM230100 VRB06KT P6SM BKN100
FM230700 28010KT P6SM BKN080 WS020/30040KT

Example: see airport list